Time;durP1;ratioP1;P1;durP2;ratioP2;P2;SDS_P1;SDS_P2;PMS_P1;PMS_P2;Temp;Humidity;BMP_temperature;BMP_pressure;BME280_temperature;BME280_humidity;BME280_pressure;Samples;Min_cycle;Max_cycle;Signal;HPM_P1;HPM_P2
2022/03/05 00:00:55;;;;;;;14.60;9.43;;;;;;;2.30;53.71;100228.34;1088024;54;20041;-78
2022/03/05 00:02:06;;;;;;;16.65;9.23;;;;;;;2.28;53.80;100238.13;1089577;46;20030;-79
2022/03/05 00:03:07;;;;;;;15.32;9.43;;;;;;;2.22;54.40;100235.84;1088257;54;20055;-79
2022/03/05 00:04:16;;;;;;;16.25;9.65;;;;;;;2.23;54.34;100224.38;1088248;54;20030;-78
2022/03/05 00:05:27;;;;;;;15.25;8.68;;;;;;;2.23;54.25;100228.78;1088326;54;20031;-79
2022/03/05 00:06:31;;;;;;;14.38;9.13;;;;;;;2.21;54.27;100234.16;1092280;39;20721;-76
2022/03/05 00:07:33;;;;;;;15.18;8.98;;;;;;;2.18;54.27;100227.25;1087659;54;20046;-76
2022/03/05 00:08:38;;;;;;;16.90;9.80;;;;;;;2.20;54.29;100224.53;1092144;39;20277;-76
2022/03/05 00:09:40;;;;;;;14.57;9.57;;;;;;;2.20;54.28;100234.25;1087617;54;20685;-76
2022/03/05 00:10:44;;;;;;;15.68;9.13;;;;;;;2.20;54.22;100235.06;1087225;54;20033;-76
2022/03/05 00:11:49;;;;;;;14.48;9.13;;;;;;;2.17;54.61;100230.00;1087651;54;20049;-76
2022/03/05 00:12:51;;;;;;;14.13;9.45;;;;;;;2.11;54.74;100235.59;1088483;39;20746;-75
2022/03/05 00:13:55;;;;;;;17.48;10.02;;;;;;;2.13;54.53;100228.47;1087209;54;20031;-75
2022/03/05 00:14:57;;;;;;;16.60;9.63;;;;;;;2.13;54.44;100231.09;1087434;54;20034;-75
2022/03/05 00:16:01;;;;;;;14.52;8.95;;;;;;;2.14;54.20;100240.72;1087597;54;20030;-76
2022/03/05 00:17:04;;;;;;;14.38;9.20;;;;;;;2.17;54.18;100235.28;1087648;54;20034;-76
2022/03/05 00:18:08;;;;;;;15.98;9.40;;;;;;;2.18;54.02;100231.66;1087643;54;20090;-76
2022/03/05 00:19:10;;;;;;;13.45;8.27;;;;;;;2.22;53.81;100227.09;1090061;39;20528;-76
2022/03/05 00:20:14;;;;;;;14.20;9.35;;;;;;;2.20;54.39;100237.72;1087398;54;20035;-77
2022/03/05 00:21:21;;;;;;;14.10;9.00;;;;;;;2.15;54.52;100242.41;1087254;54;20615;-76
2022/03/05 00:22:22;;;;;;;17.05;9.00;;;;;;;2.12;54.51;100230.25;1087213;54;20046;-75
2022/03/05 00:23:27;;;;;;;17.23;10.05;;;;;;;2.09;54.75;100240.97;1087145;54;20045;-76
2022/03/05 00:24:29;;;;;;;14.43;8.82;;;;;;;2.07;54.83;100234.91;1086953;54;20034;-75
2022/03/05 00:25:33;;;;;;;14.32;8.88;;;;;;;2.09;54.83;100230.41;1087325;47;20048;-75
2022/03/05 00:26:35;;;;;;;13.38;8.75;;;;;;;2.01;55.09;100236.09;1087131;54;20034;-76
2022/03/05 00:27:39;;;;;;;14.20;9.35;;;;;;;2.05;54.82;100230.69;1087144;54;20030;-76
2022/03/05 00:28:43;;;;;;;16.48;9.80;;;;;;;2.01;54.99;100236.09;1091761;39;20847;-76
2022/03/05 00:29:45;;;;;;;15.18;9.02;;;;;;;1.99;55.14;100226.59;1090738;39;20812;-75
2022/03/05 00:30:49;;;;;;;14.98;9.40;;;;;;;2.01;55.05;100236.09;1087239;54;20049;-76
2022/03/05 00:31:50;;;;;;;16.05;9.25;;;;;;;1.96;55.13;100232.91;1089773;39;20746;-76
2022/03/05 00:32:55;;;;;;;15.70;9.82;;;;;;;1.96;54.94;100235.53;1087261;54;20056;-76
2022/03/05 00:33:59;;;;;;;14.13;8.82;;;;;;;1.94;55.18;100234.75;1087645;54;20037;-75
2022/03/05 00:35:00;;;;;;;14.80;9.85;;;;;;;1.90;55.34;100227.09;1087940;47;20033;-75
2022/03/05 00:36:05;;;;;;;15.70;9.05;;;;;;;1.93;55.51;100229.56;1087505;54;20620;-76
2022/03/05 00:37:10;;;;;;;14.32;9.13;;;;;;;1.93;55.23;100232.22;1087357;54;20046;-76
2022/03/05 00:38:14;;;;;;;19.00;10.27;;;;;;;1.85;55.40;100237.91;1088213;39;20528;-76
2022/03/05 00:39:15;;;;;;;14.18;9.15;;;;;;;1.85;55.67;100243.19;1087490;47;20678;-75
2022/03/05 00:40:20;;;;;;;14.30;9.52;;;;;;;1.79;55.75;100235.59;1087342;54;20058;-76
2022/03/05 00:41:24;;;;;;;13.80;9.45;;;;;;;1.75;55.78;100234.91;1087247;54;20038;-76
2022/03/05 00:42:26;;;;;;;14.63;8.23;;;;;;;1.78;55.69;100233.91;1088778;47;20046;-76
2022/03/05 00:43:30;;;;;;;15.95;9.35;;;;;;;1.77;56.14;100234.84;1087393;54;20034;-75
2022/03/05 00:44:32;;;;;;;12.52;8.15;;;;;;;1.78;55.69;100233.91;1086911;54;21043;-75
2022/03/05 00:45:36;;;;;;;14.52;9.02;;;;;;;1.80;55.78;100238.16;1087643;47;20041;-76
2022/03/05 00:46:38;;;;;;;17.95;9.20;;;;;;;1.78;55.86;100237.38;1087451;54;20034;-77
2022/03/05 00:47:42;;;;;;;14.35;9.40;;;;;;;1.76;55.89;100233.13;1087657;54;20042;-76
2022/03/05 00:48:45;;;;;;;15.38;9.60;;;;;;;1.75;56.15;100234.06;1087241;54;20658;-76
2022/03/05 00:49:49;;;;;;;14.63;9.68;;;;;;;1.76;56.17;100239.25;1087378;54;21026;-77
2022/03/05 00:50:53;;;;;;;12.95;8.40;;;;;;;1.79;55.77;100240.88;1087812;54;20026;-76
2022/03/05 00:51:54;;;;;;;15.15;9.80;;;;;;;1.75;56.25;100234.06;1087749;54;20046;-76
2022/03/05 00:53:01;;;;;;;14.40;10.38;;;;;;;1.73;56.29;100236.78;1087771;54;20078;-77
2022/03/05 00:54:03;;;;;;;17.23;10.10;;;;;;;1.74;56.24;100237.63;1087602;54;20030;-76
2022/03/05 00:55:09;;;;;;;14.77;9.77;;;;;;;1.66;56.48;100238.91;1087694;54;20110;-76
2022/03/05 00:56:13;;;;;;;16.10;9.60;;;;;;;1.67;56.45;100230.06;1087393;54;20057;-75
2022/03/05 00:57:15;;;;;;;15.43;9.30;;;;;;;1.66;56.46;100235.41;1087777;54;20015;-76
2022/03/05 00:58:19;;;;;;;15.55;9.68;;;;;;;1.68;56.46;100234.41;1087642;54;20717;-76
2022/03/05 00:59:20;;;;;;;13.23;9.60;;;;;;;1.68;56.25;100230.91;1088813;46;20027;-77
2022/03/05 01:00:24;;;;;;;15.27;9.88;;;;;;;1.60;56.56;100230.47;1087749;54;20038;-76
2022/03/05 01:01:27;;;;;;;16.15;9.65;;;;;;;1.59;56.85;100228.75;1087824;54;20035;-75
2022/03/05 01:02:31;;;;;;;14.52;8.52;;;;;;;1.61;56.55;100230.38;1088111;54;20030;-76
2022/03/05 01:03:35;;;;;;;14.02;9.15;;;;;;;1.62;56.67;100229.44;1087964;54;20031;-76
2022/03/05 01:04:37;;;;;;;13.77;9.27;;;;;;;1.64;56.30;100227.59;1087934;54;20042;-76
2022/03/05 01:05:43;;;;;;;15.73;9.70;;;;;;;1.61;56.87;100232.19;1087805;54;20026;-76
2022/03/05 01:06:45;;;;;;;12.63;8.57;;;;;;;1.66;56.49;100231.00;1087846;54;20014;-76
2022/03/05 01:07:49;;;;;;;14.65;8.32;;;;;;;1.65;56.58;100225.81;1087989;54;20038;-76
2022/03/05 01:08:53;;;;;;;13.35;8.30;;;;;;;1.75;56.20;100228.78;1087894;54;20026;-76
2022/03/05 01:09:57;;;;;;;14.52;9.40;;;;;;;1.77;56.05;100232.19;1087693;54;20015;-76
2022/03/05 01:10:59;;;;;;;12.70;8.73;;;;;;;1.75;56.17;100227.00;1088972;46;20049;-76
2022/03/05 01:12:04;;;;;;;13.52;8.57;;;;;;;1.73;56.33;100228.88;1086883;54;20037;-76
2022/03/05 01:13:05;;;;;;;14.52;9.05;;;;;;;1.71;56.40;100228.13;1087210;54;20034;-76
2022/03/05 01:14:10;;;;;;;14.52;9.30;;;;;;;1.66;56.99;100224.84;1087237;54;20035;-76
2022/03/05 01:15:11;;;;;;;13.25;8.50;;;;;;;1.68;56.63;100234.41;1087046;54;20106;-76
2022/03/05 01:16:16;;;;;;;13.52;8.88;;;;;;;1.68;56.66;100230.91;1087229;54;20688;-75
2022/03/05 01:17:18;;;;;;;13.63;8.68;;;;;;;1.68;56.53;100223.88;1087266;54;20048;-75
2022/03/05 01:18:22;;;;;;;14.57;8.77;;;;;;;1.69;56.41;100225.56;1086909;54;20049;-75
2022/03/05 01:19:24;;;;;;;13.82;8.85;;;;;;;1.64;56.77;100227.59;1087121;54;20038;-76
2022/03/05 01:20:28;;;;;;;13.02;8.98;;;;;;;1.61;56.70;100227.75;1087348;54;20045;-76
2022/03/05 01:21:30;;;;;;;13.35;8.75;;;;;;;1.63;56.85;100230.31;1087487;54;20041;-76
2022/03/05 01:22:34;;;;;;;12.55;8.20;;;;;;;1.60;56.81;100236.59;1087481;54;20034;-76
2022/03/05 01:23:36;;;;;;;13.63;7.95;;;;;;;1.64;56.48;100226.75;1088656;39;20410;-75
2022/03/05 01:24:49;;;;;;;14.02;8.75;;;;;;;1.55;57.02;100222.81;1087868;54;20045;-75
2022/03/05 01:25:51;;;;;;;15.02;9.05;;;;;;;1.64;56.67;100227.59;1088258;54;20057;-77
2022/03/05 01:26:55;;;;;;;12.25;8.10;;;;;;;1.58;56.95;100225.28;1088160;54;20062;-77
2022/03/05 01:27:57;;;;;;;13.65;8.43;;;;;;;1.52;57.06;100223.84;1088235;54;20038;-75
2022/03/05 01:29:02;;;;;;;14.02;8.68;;;;;;;1.53;56.83;100227.31;1088330;46;20065;-76
2022/03/05 01:30:07;;;;;;;13.73;8.23;;;;;;;1.54;56.80;100229.88;1088797;46;20047;-76
2022/03/05 01:31:08;;;;;;;13.57;8.50;;;;;;;1.53;56.80;100229.94;1088298;54;20034;-76
2022/03/05 01:32:16;;;;;;;13.43;7.82;;;;;;;1.57;56.67;100226.22;1088355;54;20019;-76
2022/03/05 01:33:17;;;;;;;12.50;7.88;;;;;;;1.59;56.57;100229.63;1088089;54;20037;-76
2022/03/05 01:34:23;;;;;;;12.63;8.35;;;;;;;1.53;57.05;100222.03;1087836;54;20034;-77
2022/03/05 01:35:24;;;;;;;12.75;8.20;;;;;;;1.54;56.84;100232.53;1088155;46;20042;-77
2022/03/05 01:36:33;;;;;;;13.75;8.15;;;;;;;1.45;57.42;100230.38;1088240;54;20025;-77
2022/03/05 01:37:35;;;;;;;14.93;8.80;;;;;;;1.43;57.15;100226.09;1091599;46;20042;-77
2022/03/05 01:38:41;;;;;;;12.18;7.75;;;;;;;1.44;57.17;100225.16;1087617;54;20054;-75
2022/03/05 01:39:43;;;;;;;14.40;8.18;;;;;;;1.43;57.11;100224.34;1088133;54;20038;-77
2022/03/05 01:40:51;;;;;;;12.38;8.00;;;;;;;1.39;57.53;100228.03;1088172;54;20361;-77
2022/03/05 01:41:55;;;;;;;13.63;8.38;;;;;;;1.41;57.48;100226.19;1088227;54;20054;-77
2022/03/05 01:43:00;;;;;;;12.82;8.00;;;;;;;1.42;57.41;100221.78;1088286;54;20085;-77
2022/03/05 01:44:02;;;;;;;15.50;8.27;;;;;;;1.40;57.42;100219.22;1089342;46;20018;-76
2022/03/05 01:45:08;;;;;;;12.45;7.68;;;;;;;1.45;57.22;100225.09;1088223;54;20034;-78
2022/03/05 01:46:09;;;;;;;12.90;7.88;;;;;;;1.39;57.45;100225.41;1088148;54;20042;-76
2022/03/05 01:47:14;;;;;;;12.05;7.82;;;;;;;1.46;57.14;100221.53;1087995;54;20038;-76
2022/03/05 01:48:15;;;;;;;15.57;9.20;;;;;;;1.43;57.29;100213.78;1088009;54;20047;-76
2022/03/05 01:49:20;;;;;;;15.68;8.70;;;;;;;1.36;57.28;100223.81;1087995;54;20038;-76
2022/03/05 01:50:21;;;;;;;13.05;8.02;;;;;;;1.33;57.58;100223.13;1087880;54;20039;-76
2022/03/05 01:51:25;;;;;;;14.45;8.13;;;;;;;1.31;57.59;100225.84;1087844;54;20064;-76
2022/03/05 01:52:30;;;;;;;13.75;9.00;;;;;;;1.30;57.45;100228.53;1087742;54;20038;-76
2022/03/05 01:53:32;;;;;;;12.57;8.18;;;;;;;1.32;57.32;100227.53;1087605;54;20034;-76
2022/03/05 01:54:36;;;;;;;12.10;7.88;;;;;;;1.36;57.35;100222.97;1087506;54;20030;-77
2022/03/05 01:55:38;;;;;;;12.00;7.80;;;;;;;1.40;57.14;100225.34;1087153;54;20034;-75
2022/03/05 01:56:45;;;;;;;10.35;7.03;;;;;;;1.44;56.96;100222.53;1086883;54;20035;-75
2022/03/05 01:57:47;;;;;;;11.65;7.47;;;;;;;1.44;56.99;100223.41;1089010;39;20826;-76
2022/03/05 01:58:51;;;;;;;13.27;7.97;;;;;;;1.42;57.15;100233.16;1086872;54;20050;-76
2022/03/05 01:59:54;;;;;;;11.77;7.47;;;;;;;1.42;57.09;100227.91;1087051;54;20042;-75
2022/03/05 02:00:58;;;;;;;13.77;8.48;;;;;;;1.38;57.17;100227.22;1087239;54;20031;-76
2022/03/05 02:02:00;;;;;;;12.65;8.43;;;;;;;1.38;57.28;100221.94;1087288;54;20041;-75
2022/03/05 02:03:04;;;;;;;11.32;7.07;;;;;;;1.44;57.21;100226.03;1087843;39;20532;-76
2022/03/05 02:04:06;;;;;;;12.80;6.60;;;;;;;1.47;56.97;100217.09;1087356;54;20053;-75
2022/03/05 02:05:12;;;;;;;12.38;7.57;;;;;;;1.49;56.79;100223.16;1087322;54;20054;-76
2022/03/05 02:06:13;;;;;;;10.45;6.95;;;;;;;1.49;57.00;100225.78;1087576;54;20065;-76
2022/03/05 02:07:17;;;;;;;12.18;8.13;;;;;;;1.52;56.87;100218.56;1087837;54;20042;-76
2022/03/05 02:08:19;;;;;;;10.73;6.78;;;;;;;1.54;56.34;100216.72;1087753;54;20038;-76
2022/03/05 02:09:23;;;;;;;10.57;6.55;;;;;;;1.59;56.47;100212.94;1087812;54;20033;-75
2022/03/05 02:10:25;;;;;;;12.60;6.22;;;;;;;1.63;56.48;100217.13;1087689;54;20627;-76
2022/03/05 02:11:29;;;;;;;10.57;6.75;;;;;;;1.62;56.49;100213.63;1087782;54;20030;-76
2022/03/05 02:12:35;;;;;;;11.18;6.57;;;;;;;1.62;56.51;100218.91;1087413;54;20043;-75
2022/03/05 02:13:40;;;;;;;12.10;7.45;;;;;;;1.60;56.65;100215.53;1087861;54;20050;-76
2022/03/05 02:14:42;;;;;;;10.90;7.13;;;;;;;1.60;56.50;100225.19;1088330;46;20035;-76
2022/03/05 02:15:46;;;;;;;12.05;7.13;;;;;;;1.59;56.57;100224.38;1089744;39;20886;-76
2022/03/05 02:16:48;;;;;;;11.10;6.93;;;;;;;1.60;56.57;100217.28;1087843;54;20030;-76
2022/03/05 02:17:52;;;;;;;10.50;6.68;;;;;;;1.59;56.57;100219.09;1087828;54;20042;-76
2022/03/05 02:18:55;;;;;;;11.70;7.45;;;;;;;1.59;56.26;100216.47;1088219;39;20521;-75
2022/03/05 02:20:01;;;;;;;13.00;7.60;;;;;;;1.56;56.76;100225.34;1087622;54;20050;-76
2022/03/05 02:21:05;;;;;;;11.30;7.60;;;;;;;1.57;56.51;100226.22;1087548;54;20065;-76
2022/03/05 02:22:10;;;;;;;11.38;7.78;;;;;;;1.57;56.50;100228.84;1087391;47;20069;-76
2022/03/05 02:23:11;;;;;;;11.90;7.10;;;;;;;1.55;56.56;100217.53;1087581;54;20042;-77
2022/03/05 02:24:31;;;;;;;13.80;6.82;;;;;;;1.56;56.59;100220.09;1087736;54;20035;-76
2022/03/05 02:25:32;;;;;;;10.63;6.53;;;;;;;1.59;56.34;100226.13;1087524;54;20049;-76
2022/03/05 02:26:36;;;;;;;11.18;6.40;;;;;;;1.62;56.40;100224.19;1087542;54;20119;-76
2022/03/05 02:27:40;;;;;;;10.90;6.90;;;;;;;1.63;56.46;100227.69;1087730;54;20049;-76
2022/03/05 02:28:44;;;;;;;10.05;6.55;;;;;;;1.65;56.39;100229.28;1087681;54;20046;-76
2022/03/05 02:29:45;;;;;;;10.18;6.43;;;;;;;1.67;56.10;100224.78;1087279;54;20639;-76
2022/03/05 02:30:50;;;;;;;10.70;6.88;;;;;;;1.68;56.32;100225.63;1087499;54;20041;-76
2022/03/05 02:31:53;;;;;;;9.63;6.30;;;;;;;1.69;56.25;100225.56;1087805;54;20034;-76
2022/03/05 02:32:57;;;;;;;10.30;6.40;;;;;;;1.70;56.30;100221.97;1093175;39;20519;-76
2022/03/05 02:34:00;;;;;;;9.82;5.78;;;;;;;1.74;56.03;100229.72;1087291;54;20042;-75
2022/03/05 02:35:05;;;;;;;10.32;5.85;;;;;;;1.71;56.10;100223.69;1087732;54;20045;-75
2022/03/05 02:36:09;;;;;;;9.90;6.38;;;;;;;1.73;56.21;100228.00;1087810;54;20030;-76
2022/03/05 02:37:15;;;;;;;13.23;6.50;;;;;;;1.74;56.14;100233.22;1087869;47;20040;-76
2022/03/05 02:38:20;;;;;;;10.73;6.45;;;;;;;1.73;55.95;100226.25;1087416;54;20034;-76
2022/03/05 02:39:26;;;;;;;9.98;6.80;;;;;;;1.69;56.07;100230.84;1087406;54;20042;-76
2022/03/05 02:40:28;;;;;;;9.88;5.85;;;;;;;1.73;56.14;100226.25;1087622;54;20065;-76
2022/03/05 02:41:33;;;;;;;11.63;7.40;;;;;;;1.67;56.03;100222.16;1087851;54;20078;-75
2022/03/05 02:42:34;;;;;;;12.05;7.13;;;;;;;1.65;56.23;100221.38;1087787;54;20035;-77
2022/03/05 02:43:38;;;;;;;14.60;8.13;;;;;;;1.54;56.39;100221.09;1087707;54;20026;-76
2022/03/05 02:44:40;;;;;;;12.23;8.27;;;;;;;1.43;56.94;100229.59;1087708;54;20031;-76
2022/03/05 02:45:45;;;;;;;14.52;7.60;;;;;;;1.46;56.60;100218.03;1087866;46;20019;-76
2022/03/05 02:46:47;;;;;;;13.40;7.63;;;;;;;1.39;56.66;100228.91;1087607;54;20042;-76
2022/03/05 02:47:51;;;;;;;11.82;7.10;;;;;;;1.36;56.75;100223.81;1087724;54;20914;-76
2022/03/05 02:48:53;;;;;;;12.50;7.30;;;;;;;1.31;57.08;100228.47;1087761;54;20031;-76
2022/03/05 02:49:57;;;;;;;12.05;7.88;;;;;;;1.24;57.41;100221.81;1088701;39;20765;-76
2022/03/05 02:50:58;;;;;;;12.93;8.32;;;;;;;1.23;57.51;100228.88;1087743;54;20038;-76
2022/03/05 02:52:07;;;;;;;11.65;7.82;;;;;;;1.26;57.36;100217.31;1087790;54;20030;-76
2022/03/05 02:53:09;;;;;;;13.48;8.27;;;;;;;1.21;57.43;100220.19;1087652;54;20030;-77
2022/03/05 02:54:13;;;;;;;13.82;8.85;;;;;;;1.15;57.67;100217.03;1087625;54;20026;-75
2022/03/05 02:55:15;;;;;;;12.77;8.55;;;;;;;1.14;57.92;100220.56;1091695;39;20930;-75
2022/03/05 02:56:19;;;;;;;14.95;9.02;;;;;;;1.07;57.94;100215.66;1087420;54;20038;-76
2022/03/05 02:57:21;;;;;;;13.45;8.13;;;;;;;1.03;58.22;100224.66;1087742;54;20038;-76
2022/03/05 02:58:25;;;;;;;13.98;8.30;;;;;;;0.99;58.54;100225.72;1088085;46;20026;-77
2022/03/05 02:59:27;;;;;;;13.50;8.25;;;;;;;0.93;58.76;100218.16;1087845;46;20038;-76
2022/03/05 03:00:32;;;;;;;14.20;8.48;;;;;;;0.89;58.94;100219.22;1087629;54;20114;-76
2022/03/05 03:01:36;;;;;;;14.30;8.90;;;;;;;0.85;59.14;100228.22;1087776;54;20038;-76
2022/03/05 03:02:38;;;;;;;13.80;9.80;;;;;;;0.85;59.19;100228.22;1091277;39;20645;-76
2022/03/05 03:03:42;;;;;;;15.50;9.82;;;;;;;0.77;59.55;100221.53;1089751;46;20026;-77
2022/03/05 03:04:44;;;;;;;15.70;9.60;;;;;;;0.76;59.64;100235.63;1087702;54;20042;-77
2022/03/05 03:05:48;;;;;;;14.07;9.18;;;;;;;0.73;59.84;100230.53;1089562;46;20098;-77
2022/03/05 03:06:50;;;;;;;13.77;9.32;;;;;;;0.68;59.79;100232.53;1087707;54;20042;-75
2022/03/05 03:07:57;;;;;;;13.85;8.80;;;;;;;0.66;60.04;100226.53;1087761;54;20026;-76
2022/03/05 03:08:58;;;;;;;14.85;9.23;;;;;;;0.66;59.97;100234.41;1087729;54;20042;-76
2022/03/05 03:10:02;;;;;;;16.05;9.63;;;;;;;0.65;60.00;100229.22;1087450;54;20030;-76
2022/03/05 03:11:04;;;;;;;13.98;8.80;;;;;;;0.69;59.71;100233.41;1087811;54;20035;-77
2022/03/05 03:12:09;;;;;;;13.88;8.63;;;;;;;0.69;59.76;100230.78;1087541;54;20043;-77
2022/03/05 03:13:14;;;;;;;14.00;8.82;;;;;;;0.74;59.55;100229.63;1086925;54;20057;-77
2022/03/05 03:14:15;;;;;;;13.73;8.25;;;;;;;0.80;59.26;100240.75;1087719;54;20041;-76
2022/03/05 03:15:21;;;;;;;14.18;9.05;;;;;;;0.80;59.29;100232.84;1087718;54;20041;-77
2022/03/05 03:16:22;;;;;;;13.80;8.50;;;;;;;0.82;59.40;100236.28;1088723;46;20034;-76
2022/03/05 03:17:26;;;;;;;12.82;8.10;;;;;;;0.86;59.04;100233.41;1087357;54;20050;-76
2022/03/05 03:18:28;;;;;;;14.85;8.43;;;;;;;0.91;59.23;100227.91;1087176;54;20057;-76
2022/03/05 03:19:32;;;;;;;14.80;8.15;;;;;;;0.86;59.28;100233.41;1087047;54;20042;-75
2022/03/05 03:20:34;;;;;;;13.60;8.27;;;;;;;0.88;59.19;100238.56;1087165;54;20049;-76
2022/03/05 03:21:38;;;;;;;14.80;9.20;;;;;;;0.91;59.01;100235.81;1087347;54;20030;-76
2022/03/05 03:22:40;;;;;;;13.60;8.63;;;;;;;0.87;59.20;100239.50;1087187;54;20046;-77
2022/03/05 03:23:47;;;;;;;13.68;8.15;;;;;;;0.89;59.12;100235.03;1087224;54;20031;-76
2022/03/05 03:24:48;;;;;;;12.35;7.55;;;;;;;0.93;58.95;100234.78;1086852;54;20038;-77
2022/03/05 03:25:52;;;;;;;12.48;7.97;;;;;;;0.92;58.80;100230.44;1087950;39;20638;-76
2022/03/05 03:26:54;;;;;;;13.02;8.50;;;;;;;0.90;59.06;100227.03;1087988;39;20590;-75
2022/03/05 03:27:58;;;;;;;12.70;7.95;;;;;;;0.91;58.87;100222.63;1087631;54;21021;-75
2022/03/05 03:28:59;;;;;;;12.80;8.32;;;;;;;0.86;58.96;100229.91;1087351;54;20031;-77
2022/03/05 03:30:04;;;;;;;13.13;8.63;;;;;;;0.87;59.11;100231.59;1087247;54;20771;-77
2022/03/05 03:31:06;;;;;;;13.60;8.68;;;;;;;0.81;59.45;100231.94;1087747;54;20038;-76
2022/03/05 03:32:10;;;;;;;13.93;8.63;;;;;;;0.81;59.50;100232.78;1088419;46;20042;-76
2022/03/05 03:33:12;;;;;;;13.48;9.00;;;;;;;0.80;59.50;100235.50;1087647;54;20030;-76
2022/03/05 03:34:16;;;;;;;11.73;8.13;;;;;;;0.83;59.37;100235.34;1087879;46;20041;-76
2022/03/05 03:35:18;;;;;;;13.43;8.65;;;;;;;0.79;59.34;100229.38;1087610;54;20034;-76
2022/03/05 03:36:22;;;;;;;12.85;8.02;;;;;;;0.81;59.30;100237.19;1087687;54;20035;-77
2022/03/05 03:37:28;;;;;;;14.55;8.98;;;;;;;0.77;59.45;100236.50;1088244;46;20041;-76
2022/03/05 03:38:32;;;;;;;13.25;8.23;;;;;;;0.76;59.59;100233.00;1087623;54;20042;-76
2022/03/05 03:39:37;;;;;;;17.15;8.95;;;;;;;0.74;59.55;100232.25;1087702;54;20709;-76
2022/03/05 03:40:41;;;;;;;16.85;8.88;;;;;;;0.70;59.78;100230.69;1087680;54;20030;-76
2022/03/05 03:41:43;;;;;;;14.07;8.25;;;;;;;0.73;59.62;100234.94;1087612;54;20042;-75
2022/03/05 03:42:49;;;;;;;12.85;7.85;;;;;;;0.73;59.62;100235.81;1087518;54;20064;-77
2022/03/05 03:43:51;;;;;;;15.52;9.70;;;;;;;0.74;59.78;100241.91;1087470;54;20037;-76
2022/03/05 03:44:56;;;;;;;14.32;9.00;;;;;;;0.72;59.90;100239.38;1087600;47;20041;-76
2022/03/05 03:45:57;;;;;;;14.90;8.40;;;;;;;0.74;59.58;100236.66;1087255;54;20042;-77
2022/03/05 03:47:02;;;;;;;12.68;8.23;;;;;;;0.73;59.63;100230.53;1087463;54;20030;-76
2022/03/05 03:48:07;;;;;;;15.23;9.18;;;;;;;0.69;59.66;100234.25;1087671;54;20038;-76
2022/03/05 03:49:08;;;;;;;15.27;9.73;;;;;;;0.65;59.79;100237.97;1087517;54;20030;-76
2022/03/05 03:50:14;;;;;;;15.70;9.45;;;;;;;0.57;60.15;100238.34;1087625;54;20041;-76
2022/03/05 03:51:16;;;;;;;14.57;8.98;;;;;;;0.55;60.12;100232.31;1089696;39;20769;-77
2022/03/05 03:52:20;;;;;;;14.43;8.88;;;;;;;0.54;60.03;100237.66;1087501;54;20037;-76
2022/03/05 03:53:22;;;;;;;14.30;9.75;;;;;;;0.50;60.35;100236.94;1087596;54;20030;-76
2022/03/05 03:54:26;;;;;;;15.02;9.65;;;;;;;0.52;60.35;100242.13;1087602;54;20042;-76
2022/03/05 03:55:33;;;;;;;16.08;8.88;;;;;;;0.53;60.11;100238.56;1087639;54;20039;-76
2022/03/05 03:56:35;;;;;;;12.32;8.50;;;;;;;0.51;59.98;100241.28;1087561;54;20034;-76
2022/03/05 03:57:41;;;;;;;12.70;8.20;;;;;;;0.53;60.14;100236.78;1088603;39;20543;-76
2022/03/05 03:58:45;;;;;;;13.45;7.97;;;;;;;0.56;60.10;100235.81;1087462;54;20041;-76
2022/03/05 03:59:47;;;;;;;13.13;8.50;;;;;;;0.63;59.81;100237.19;1087344;54;20030;-76
2022/03/05 04:00:51;;;;;;;14.93;9.23;;;;;;;0.62;59.82;100243.38;1087594;54;20035;-76
2022/03/05 04:01:53;;;;;;;12.43;8.27;;;;;;;0.61;59.79;100242.50;1087535;54;20042;-76
2022/03/05 04:02:57;;;;;;;12.52;8.32;;;;;;;0.57;60.17;100250.63;1087189;54;20115;-76
2022/03/05 04:03:59;;;;;;;13.70;8.38;;;;;;;0.60;59.75;100245.22;1087624;54;20063;-76
2022/03/05 04:05:03;;;;;;;14.48;10.38;;;;;;;0.58;59.92;100247.94;1087602;54;20030;-76
2022/03/05 04:06:07;;;;;;;14.27;8.98;;;;;;;0.55;60.03;100242.00;1087680;54;20039;-76
2022/03/05 04:08:43;;;;;;;14.65;8.43;;;;;;;0.52;60.32;100242.13;1087432;54;20030;-75
2022/03/05 04:09:44;;;;;;;14.07;9.05;;;;;;;0.47;60.42;100240.56;1087361;54;20061;-76
2022/03/05 04:10:51;;;;;;;12.63;8.60;;;;;;;0.47;60.54;100245.81;1088167;46;20041;-76
2022/03/05 04:11:52;;;;;;;13.25;8.63;;;;;;;0.54;60.52;100245.53;1087309;54;20038;-76
2022/03/05 04:12:57;;;;;;;14.15;8.80;;;;;;;0.52;60.39;100250.03;1086905;54;20046;-75
2022/03/05 04:13:58;;;;;;;12.20;8.10;;;;;;;0.54;60.18;100242.91;1087045;54;20058;-76
2022/03/05 04:15:02;;;;;;;13.43;8.55;;;;;;;0.53;60.16;100246.47;1086966;54;20034;-79
2022/03/05 04:16:13;;;;;;;15.90;10.15;;;;;;;0.48;60.51;100251.97;1087623;54;20034;-76
2022/03/05 04:17:15;;;;;;;13.88;8.93;;;;;;;0.49;60.66;100252.78;1087772;54;20014;-77
2022/03/05 04:18:19;;;;;;;15.70;9.75;;;;;;;0.46;60.84;100251.16;1087727;54;20037;-76
2022/03/05 04:19:21;;;;;;;15.82;9.20;;;;;;;0.36;61.30;100247.28;1087695;54;20042;-77
2022/03/05 04:20:26;;;;;;;16.95;10.30;;;;;;;0.26;61.70;100253.00;1087425;54;20038;-75
2022/03/05 04:21:28;;;;;;;14.98;10.02;;;;;;;0.21;61.92;100257.63;1086841;54;20037;-77
2022/03/05 04:22:33;;;;;;;17.23;10.93;;;;;;;0.13;62.18;100258.00;1086988;54;20038;-77
2022/03/05 04:23:35;;;;;;;16.23;10.68;;;;;;;0.02;62.75;100260.25;1087400;54;20034;-75
2022/03/05 04:24:39;;;;;;;16.92;11.45;;;;;;;-0.01;62.76;100255.16;1087348;54;20042;-76
2022/03/05 04:25:41;;;;;;;18.58;11.40;;;;;;;0.01;62.87;100262.97;1087459;47;20026;-76
2022/03/05 04:26:47;;;;;;;19.85;12.68;;;;;;;-0.01;62.93;100260.44;1087365;54;20042;-76
2022/03/05 04:27:49;;;;;;;17.00;10.40;;;;;;;-0.03;62.82;100257.00;1087345;54;20038;-76
2022/03/05 04:28:53;;;;;;;17.63;10.50;;;;;;;0.01;62.57;100253.28;1089817;39;20700;-76
2022/03/05 04:29:54;;;;;;;17.45;10.88;;;;;;;0.06;62.54;100253.94;1087291;54;20033;-76
2022/03/05 04:30:59;;;;;;;18.90;11.55;;;;;;;-0.01;62.84;100261.25;1088604;47;20030;-76
2022/03/05 04:32:00;;;;;;;17.35;11.05;;;;;;;-0.06;63.24;100262.41;1088993;46;20053;-76
2022/03/05 04:33:11;;;;;;;16.98;10.98;;;;;;;-0.12;63.71;100262.69;1087626;54;20058;-75
2022/03/05 04:34:13;;;;;;;18.92;10.65;;;;;;;-0.22;63.82;100268.38;1087973;47;20031;-76
2022/03/05 04:35:25;;;;;;;21.75;12.00;;;;;;;-0.26;63.97;100264.16;1087639;54;20030;-77
2022/03/05 04:36:30;;;;;;;19.67;11.65;;;;;;;-0.32;64.36;100264.47;1087683;54;20031;-75
2022/03/05 04:37:33;;;;;;;19.20;12.07;;;;;;;-0.34;64.16;100269.78;1087945;47;20026;-75
2022/03/05 04:38:49;;;;;;;18.67;11.13;;;;;;;-0.32;64.44;100272.34;1095013;39;20892;-75
2022/03/05 04:39:51;;;;;;;19.65;11.32;;;;;;;-0.31;64.21;100263.53;1087549;54;20029;-76
2022/03/05 04:40:55;;;;;;;18.83;11.75;;;;;;;-0.35;64.15;100267.22;1087619;54;20035;-76
2022/03/05 04:41:59;;;;;;;17.25;12.25;;;;;;;-0.41;64.70;100267.50;1087179;47;20066;-78
2022/03/05 04:43:06;;;;;;;17.25;11.55;;;;;;;-0.42;64.50;100268.44;1087552;47;20034;-76
2022/03/05 04:44:08;;;;;;;22.90;12.48;;;;;;;-0.44;64.71;100270.25;1087142;54;20045;-77
2022/03/05 04:45:13;;;;;;;18.60;11.45;;;;;;;-0.42;64.78;100264.00;1087891;47;20125;-75
2022/03/05 04:46:15;;;;;;;16.67;10.40;;;;;;;-0.48;64.76;100267.78;1087549;54;20030;-76
2022/03/05 04:47:19;;;;;;;21.58;11.38;;;;;;;-0.44;64.87;100273.75;1087398;54;20073;-76
2022/03/05 04:48:21;;;;;;;19.17;11.77;;;;;;;-0.44;64.66;100271.13;1087388;54;20034;-76
2022/03/05 04:49:25;;;;;;;15.18;9.82;;;;;;;-0.42;64.81;100268.44;1087267;54;20037;-76
2022/03/05 04:50:29;;;;;;;15.77;10.25;;;;;;;-0.40;64.70;100275.31;1087189;54;20045;-75
2022/03/05 04:51:31;;;;;;;16.70;10.82;;;;;;;-0.41;64.59;100267.50;1087251;54;20034;-75
2022/03/05 04:52:36;;;;;;;16.08;11.38;;;;;;;-0.39;64.75;100270.91;1088264;39;20474;-76
2022/03/05 04:53:37;;;;;;;18.55;11.60;;;;;;;-0.48;64.85;100275.66;1087260;54;20646;-76
2022/03/05 04:54:41;;;;;;;18.90;11.75;;;;;;;-0.47;64.98;100266.00;1087208;54;20046;-76
2022/03/05 04:55:43;;;;;;;16.92;10.85;;;;;;;-0.49;65.25;100268.72;1089620;39;20547;-75
2022/03/05 04:56:47;;;;;;;18.90;11.65;;;;;;;-0.47;64.82;100274.72;1087335;54;20034;-76
2022/03/05 04:57:51;;;;;;;20.48;12.30;;;;;;;-0.49;65.09;100273.09;1087491;54;20038;-76